Date,TemperatureHighF,TemperatureAvgF,TemperatureLowF,DewpointHighF,DewpointAvgF,DewpointLowF,HumidityHigh,HumidityAvg,HumidityLow,PressureMaxIn,PressureMinIn,WindSpeedMaxMPH,WindSpeedAvgMPH,GustSpeedMaxMPH,PrecipitationSumIn
2013-1-2,35,32,26,21,17,13,71,54,48,0.00,40.00,3,2,11,0.00
2013-1-3,32,29,25,26,21,14,77,71,60,0.00,40.00,2,2,4,0.00
2013-1-4,37,31,27,30,25,19,87,78,68,0.00,40.00,2,1,7,0.00
2013-1-5,44,36,28,32,28,24,89,71,58,0.00,40.00,2,1,6,0.00
2013-1-6,32,29,26,25,21,13,91,71,46,0.00,40.00,2,1,6,0.00
2013-1-7,40,33,24,31,26,20,85,75,52,0.00,40.00,2,1,4,0.00
2013-1-8,38,34,30,34,31,28,94,90,85,0.00,40.00,2,1,5,0.00
2013-1-9,36,32,27,31,30,27,98,92,76,0.00,40.00,6,2,11,0.00
2013-1-10,23,20,18,17,13,10,91,72,57,0.00,40.00,3,2,10,0.00
2013-1-11,23,21,19,12,11,9,71,64,55,0.00,40.00,2,2,10,0.00
2013-1-14,31,26,23,20,10,-2,75,53,32,0.00,40.00,4,2,12,0.00
2013-1-15,45,34,26,28,20,15,80,59,31,0.00,40.00,5,2,13,0.00
2013-1-16,45,34,29,24,14,1,70,46,15,0.00,40.00,5,2,14,0.00
2013-1-17,38,31,25,22,17,12,74,58,33,0.00,40.00,3,2,6,0.00
2013-1-18,37,30,24,25,22,17,85,72,56,0.00,40.00,2,1,7,0.00
2013-1-19,33,29,24,26,21,13,89,74,61,0.00,40.00,2,2,3,0.00
2013-1-20,39,32,23,26,17,8,88,58,29,0.00,40.00,3,2,5,0.00
2013-1-21,41,32,27,27,17,11,76,54,38,0.00,40.00,2,2,6,0.00
2013-1-22,40,34,28,31,26,21,88,73,50,0.00,40.00,2,1,6,0.00
2013-1-23,42,39,36,29,18,7,74,45,24,0.00,40.00,2,2,6,0.00
2013-1-24,39,36,34,37,34,29,98,95,74,0.00,40.00,2,1,9,0.00
2013-1-25,42,37,33,40,36,33,99,97,87,0.00,40.00,3,1,8,0.00
2013-1-26,44,36,30,35,29,21,97,76,48,0.00,40.00,6,2,14,0.00
2013-1-27,32,26,20,24,18,12,90,70,56,0.00,40.00,7,2,13,0.00
2013-1-28,32,25,16,25,17,9,85,71,57,0.00,40.00,4,1,7,0.00
2013-1-29,44,36,31,29,27,23,77,68,54,0.00,40.00,5,2,15,0.00
2013-1-30,43,36,30,33,27,20,85,71,47,0.00,40.00,2,1,7,0.00
2013-1-31,41,36,28,31,26,19,85,68,47,0.00,40.00,2,1,6,0.00
2013-2-1,41,34,28,30,22,14,82,63,46,0.00,40.00,2,1,7,0.00
2013-2-2,41,35,30,32,28,23,86,76,69,0.00,40.00,2,1,7,0.00
2013-2-3,44,35,29,33,26,19,90,72,38,0.00,40.00,2,1,7,0.00
2013-2-4,44,36,29,33,26,20,77,68,53,0.00,40.00,3,1,7,0.00
2013-2-5,48,38,29,29,20,14,76,50,28,0.00,40.00,6,2,13,0.00
2013-2-6,40,31,23,23,15,8,64,52,34,0.00,40.00,3,1,7,0.00
2013-2-7,36,30,20,26,12,-6,91,50,19,0.00,40.00,7,3,16,0.00
2013-2-8,29,23,18,15,13,10,77,65,45,0.00,40.00,4,1,12,0.00
2013-2-9,33,23,17,20,14,9,80,66,47,0.00,40.00,2,1,7,0.00
2013-2-10,32,26,23,17,14,10,75,60,44,0.00,40.00,5,2,19,0.00
2013-2-11,35,27,20,16,12,6,67,53,37,0.00,40.00,4,2,12,0.00
2013-2-12,40,32,24,28,20,15,69,59,46,0.00,40.00,2,1,7,0.00
2013-2-13,44,35,28,29,23,19,79,63,41,0.00,40.00,4,1,13,0.00
2013-2-14,45,37,31,26,23,21,73,59,42,0.00,40.00,5,2,17,0.00
2013-2-15,48,36,30,28,23,18,76,60,31,0.00,40.00,6,2,13,0.00
2013-2-16,42,35,28,32,26,17,87,70,50,0.00,40.00,2,1,6,0.00
2013-2-17,47,36,29,26,18,11,76,51,26,0.00,40.00,2,1,6,0.00
2013-2-18,45,35,28,28,20,14,81,58,30,0.00,40.00,7,2,16,0.00
2013-2-19,33,27,22,27,19,12,93,72,45,0.00,40.00,8,4,23,0.00
2013-2-20,35,26,20,22,15,8,88,63,32,0.00,40.00,5,1,18,0.00
2013-2-21,35,27,22,21,15,10,82,60,39,0.00,40.00,5,2,19,0.00
2013-2-22,43,32,24,28,19,8,77,60,25,0.00,40.00,3,1,9,0.00
2013-2-23,36,30,22,26,17,5,77,57,38,0.00,40.00,10,4,21,0.00
2013-2-24,40,27,18,14,10,1,67,48,21,0.00,40.00,5,2,15,0.00
2013-2-25,44,34,27,26,18,9,75,52,29,0.00,40.00,4,2,11,0.00
2013-2-26,39,30,24,20,12,3,74,49,24,0.00,40.00,4,1,12,0.00
2013-2-27,47,34,24,26,14,4,68,45,22,0.00,40.00,2,1,8,0.00
2013-2-28,51,38,30,36,26,17,76,60,42,0.00,40.00,2,1,7,0.00
2013-3-1,50,39,32,35,30,25,90,69,43,0.00,40.00,2,1,7,0.00
2013-3-2,55,42,34,34,28,23,85,58,30,0.00,40.00,4,1,11,0.00
2013-3-3,42,36,32,35,33,27,96,87,57,0.00,40.00,6,1,14,0.00
2013-3-4,46,35,28,35,31,27,97,85,51,0.00,40.00,2,1,6,0.00
2013-3-5,48,38,32,32,26,18,89,62,41,0.00,40.00,8,4,19,0.00
2013-3-6,37,28,23,29,22,-100,98,83,60,0.00,40.00,8,4,17,0.00
2013-3-7,34,28,24,29,24,19,95,82,62,0.00,40.00,3,1,11,0.00
2013-3-8,38,30,24,28,23,21,92,77,52,0.00,40.00,4,1,13,0.00
2013-3-9,45,34,26,27,15,4,93,51,20,0.00,40.00,5,2,16,0.00
2013-3-10,48,38,28,28,15,7,51,39,22,0.00,40.00,4,2,10,0.00
2013-3-11,55,39,29,31,21,14,68,51,25,0.00,40.00,2,1,7,0.00
2013-3-12,53,42,33,36,28,22,76,60,36,0.00,40.00,3,1,6,0.00
2013-3-13,55,44,34,42,34,24,89,70,32,0.00,40.00,2,1,6,0.00
2013-3-14,61,48,40,37,28,16,74,47,26,0.00,40.00,5,2,9,0.00
2013-3-15,58,44,34,41,31,23,85,62,27,0.00,40.00,3,1,7,0.00
2013-3-16,53,42,32,34,25,16,77,53,25,0.00,40.00,4,1,12,0.00
2013-3-17,52,41,32,30,21,4,72,49,16,0.00,40.00,3,1,10,0.00
2013-3-18,52,41,31,32,21,12,64,46,21,0.00,40.00,4,1,9,0.00
2013-3-19,50,43,37,35,30,21,84,62,45,0.00,40.00,5,2,10,0.00
2013-3-20,45,39,35,38,34,31,94,82,70,0.00,40.00,8,4,15,0.00
2013-3-21,50,38,30,33,27,16,82,65,27,0.00,40.00,8,2,19,0.00
2013-3-22,48,34,26,27,13,-2,76,48,13,0.00,40.00,2,1,9,0.00
2013-3-23,52,44,37,28,22,12,63,44,21,0.00,40.00,3,2,6,0.00
2013-3-24,55,40,31,35,28,19,78,62,31,0.00,40.00,3,1,10,0.00
2013-3-25,55,42,33,34,21,12,81,46,22,0.00,40.00,6,2,11,0.00
2013-3-26,48,42,36,35,28,16,85,57,35,0.00,40.00,6,2,13,0.00
2013-3-27,53,41,33,38,32,29,87,72,44,0.00,40.00,4,2,9,0.00
2013-3-28,53,42,35,39,33,28,96,74,40,0.00,40.00,6,2,17,0.00
2013-3-29,50,39,32,40,34,31,97,84,56,0.00,40.00,2,1,7,0.00
2013-3-30,59,44,35,40,34,-100,92,74,38,0.00,40.00,3,1,10,0.00
2013-3-31,43,38,33,38,34,29,89,85,81,0.00,40.00,1,0,3,0.00
2013-4-1,47,40,34,35,32,30,93,76,56,0.00,40.00,2,1,5,0.00
2013-4-2,33,33,33,30,30,30,90,90,90,0.00,40.00,0,0,1,0.00
2013-4-4,51,45,39,38,36,35,87,72,56,0.00,40.00,6,4,13,0.00
2013-4-5,50,40,33,36,30,25,94,69,41,0.00,40.00,5,2,10,0.00
2013-4-7,52,49,32,29,27,25,90,45,35,0.00,40.00,7,2,13,0.00
2013-4-8,40,32,30,30,24,17,97,74,40,0.00,40.00,7,3,14,0.00
2013-4-9,46,32,27,19,16,11,68,52,26,0.00,40.00,6,3,22,0.00
2013-4-10,65,49,36,38,28,16,64,45,25,0.00,40.00,4,2,9,0.00
2013-4-11,57,49,44,39,34,22,80,58,35,0.00,40.00,4,1,13,0.00
2013-4-12,58,46,35,40,30,21,74,55,31,0.00,40.00,2,1,13,0.00
2013-4-13,57,48,41,35,30,22,71,51,33,0.00,40.00,6,2,13,0.00
2013-4-14,53,43,37,32,29,26,81,61,37,0.00,40.00,7,2,16,0.00
2013-4-15,40,34,26,30,24,19,93,69,42,0.00,40.00,8,4,15,0.00
2013-4-16,36,28,25,24,18,10,90,66,42,0.00,40.00,5,2,13,0.00
2013-4-17,27,24,22,20,14,10,73,63,50,0.00,40.00,6,2,17,0.00
2013-4-18,44,41,38,18,16,13,37,35,32,0.00,40.00,1,1,5,0.00
2013-4-19,52,41,34,33,26,20,66,56,47,0.00,40.00,4,1,9,0.00
2013-4-20,59,44,34,36,29,25,80,61,27,0.00,40.00,3,1,9,0.00
2013-4-21,44,40,37,34,32,31,78,73,67,0.00,40.00,1,0,3,0.00
2013-4-22,66,54,43,41,29,10,79,41,21,0.00,40.00,6,2,22,0.00
2013-4-23,57,44,34,32,14,4,53,30,22,0.00,40.00,7,2,23,0.00
2013-4-24,59,48,39,32,9,0,71,23,13,0.00,40.00,7,3,25,0.00
2013-4-25,65,48,36,34,22,12,59,37,18,0.00,40.00,3,1,7,0.00
2013-4-26,69,51,38,39,30,16,73,50,13,0.00,40.00,3,1,7,0.00
2013-4-27,71,53,41,40,35,28,78,54,20,0.00,40.00,3,1,7,0.00
2013-4-28,72,52,38,40,33,24,73,52,17,0.00,40.00,2,1,7,0.00
2013-4-29,67,52,44,45,39,34,77,63,29,0.00,40.00,3,1,8,0.00
2013-4-30,64,54,45,39,28,-8,76,41,10,0.00,40.00,8,2,24,0.00
2013-5-1,59,46,36,6,-2,-10,19,14,8,0.00,40.00,7,3,27,0.00
2013-5-2,69,50,36,32,14,-5,51,25,12,0.00,40.00,3,1,9,0.00
2013-5-3,70,54,41,42,29,8,76,45,13,0.00,40.00,5,1,14,0.00
2013-5-4,60,51,43,36,24,16,58,36,23,0.00,40.00,6,2,22,0.00
2013-5-5,56,46,39,44,36,27,92,68,42,0.00,40.00,8,2,25,0.00
2013-5-6,44,39,33,42,37,32,97,94,86,0.00,40.00,3,1,9,0.00
2013-5-7,46,39,34,40,37,33,97,92,73,0.00,40.00,2,1,9,0.00
2013-5-8,58,46,38,43,40,35,97,82,44,0.00,40.00,2,1,8,0.00
2013-5-9,66,50,40,47,41,34,95,75,33,0.00,40.00,3,1,11,0.00
2013-5-10,71,54,43,44,38,-100,87,61,29,0.00,40.00,3,1,11,0.00
2013-5-11,73,56,45,52,41,-100,82,61,22,0.00,40.00,3,1,7,0.00
2013-5-12,73,58,46,46,39,32,73,52,24,0.00,40.00,4,1,9,0.00
2013-5-13,74,60,48,46,36,29,75,43,22,0.00,40.00,6,2,12,0.00
2013-5-14,67,57,47,47,38,31,74,52,26,0.00,40.00,4,1,7,0.00
2013-5-15,67,55,44,42,32,20,74,46,17,0.00,40.00,8,2,19,0.00
2013-5-16,53,44,42,39,18,-100,80,62,48,0.00,40.00,7,3,13,0.00
2013-5-17,58,46,37,35,28,-100,80,57,31,0.00,40.00,5,2,13,0.00
2013-5-18,62,48,36,37,31,22,76,55,24,0.00,40.00,4,2,9,0.00
2013-5-19,64,50,39,36,31,17,84,53,25,0.00,40.00,5,2,16,0.00
2013-5-20,68,54,43,39,26,17,55,35,17,0.00,40.00,5,2,19,0.00
2013-5-21,65,55,45,34,26,10,59,34,21,0.00,40.00,8,4,19,0.00
2013-5-22,55,46,35,28,16,8,56,31,17,0.00,40.00,5,3,19,0.00
2013-5-23,55,43,31,27,20,9,66,44,21,0.00,40.00,5,2,13,0.00
2013-5-24,64,47,35,37,28,14,78,52,15,0.00,40.00,6,2,10,0.00
2013-5-25,63,50,39,36,27,17,67,43,23,0.00,40.00,5,2,11,0.00
2013-5-26,60,49,39,35,29,25,73,47,30,0.00,40.00,6,2,13,0.00
2013-5-27,54,46,39,42,33,19,87,62,33,0.00,40.00,5,2,13,0.00
2013-5-28,59,50,43,42,39,35,93,69,41,0.00,40.00,4,2,10,0.00
2013-5-29,64,52,42,43,38,31,89,61,33,0.00,40.00,6,2,13,0.00
2013-5-30,69,52,39,44,36,19,90,62,17,0.00,40.00,2,1,8,0.00
2013-5-31,53,46,41,41,36,31,81,69,53,0.00,40.00,2,1,7,0.00
2013-6-4,81,67,52,50,39,23,75,41,14,0.00,40.00,3,1,9,0.00
2013-6-5,82,65,51,49,41,26,77,45,13,0.00,40.00,2,1,7,0.00
2013-6-6,83,66,53,51,44,35,74,48,18,0.00,40.00,4,1,11,0.00
2013-6-7,88,72,60,55,41,28,68,37,12,0.00,40.00,2,1,7,0.00
2013-6-8,85,69,56,53,42,28,64,39,22,0.00,40.00,3,1,15,0.00
2013-6-9,75,66,60,55,44,33,74,46,23,0.00,40.00,5,1,17,0.00
2013-6-10,69,60,51,55,47,33,86,63,30,0.00,40.00,5,1,12,0.00
2013-6-11,73,61,51,42,36,30,69,42,27,0.00,40.00,7,3,15,0.00
2013-6-12,72,62,49,39,32,22,59,34,21,0.00,40.00,8,-64,17,0.00
2013-6-13,67,56,45,36,16,1,44,22,10,0.00,40.00,6,-57,13,0.00
2013-6-14,67,56,44,38,28,21,58,34,24,0.00,40.00,5,-66,19,0.00
2013-6-15,74,64,53,40,34,21,50,34,17,0.00,40.00,3,-52,8,0.00
2013-6-16,74,58,45,44,34,23,67,43,16,0.00,40.00,4,-51,8,0.00
2013-6-17,73,57,45,47,35,29,74,47,20,0.00,40.00,6,-84,11,0.00
2013-6-18,67,56,45,35,27,19,56,34,23,0.00,40.00,7,-40,18,0.00
2013-6-19,63,49,36,34,21,10,61,34,20,0.00,40.00,5,-78,17,0.00
2013-6-20,64,49,39,35,29,21,66,51,23,0.00,40.00,2,-103,6,0.00
2013-6-22,75,63,50,46,40,35,63,44,26,0.00,40.00,3,-51,7,0.00
2013-6-23,64,56,48,45,37,33,71,50,35,0.00,40.00,7,-23,17,0.00
2013-6-24,56,51,49,47,42,31,92,73,47,0.00,40.00,6,-45,12,0.00
2013-6-25,62,55,49,52,49,46,92,80,67,0.00,40.00,6,3,14,0.00
2013-6-26,76,63,50,53,48,44,86,62,35,0.00,40.00,5,2,13,0.00
2013-6-27,83,64,52,54,49,43,85,62,30,0.00,40.00,2,1,7,0.00
2013-6-28,87,68,56,56,48,40,77,54,21,0.00,40.00,2,1,9,0.00
2013-6-29,87,70,57,55,49,44,76,53,22,0.00,40.00,3,1,8,0.00
2013-6-30,88,70,58,56,50,42,73,51,24,0.00,40.00,2,-16,6,0.00
2013-7-1,89,70,61,57,49,36,77,51,15,0.00,40.00,4,-26,12,0.00
2013-7-2,83,69,63,57,50,41,72,53,27,0.00,40.00,2,-41,8,0.00
2013-7-3,86,69,58,57,51,47,75,55,27,0.00,40.00,3,-108,7,0.00
2013-7-4,82,68,60,59,52,48,77,61,34,0.00,40.00,3,-142,12,0.00
2013-7-5,84,71,59,53,40,23,74,39,14,0.00,40.00,6,-92,15,0.00
2013-7-6,82,68,58,43,34,23,53,30,18,0.00,40.00,7,-70,12,0.00
2013-7-7,82,70,60,47,37,30,50,31,16,0.00,40.00,5,-118,11,0.00
2013-7-8,82,65,57,43,31,-100,45,30,17,0.00,40.00,5,-113,9,0.00
2013-7-9,82,68,57,49,37,24,55,33,20,0.00,40.00,3,-39,9,0.00
2013-7-10,81,70,53,51,38,33,69,35,18,0.00,40.00,6,-80,13,0.00
2013-7-11,78,68,59,41,37,30,48,33,21,0.00,40.00,6,-47,13,0.00
2013-7-12,79,63,52,46,36,30,52,38,20,0.00,40.00,5,-97,12,0.00
2013-7-13,80,66,52,48,37,27,53,37,17,0.00,40.00,3,-42,6,0.00
2013-7-14,82,66,53,53,44,37,68,49,22,0.00,40.00,3,-100,8,0.00
2013-7-15,81,66,55,52,44,33,63,47,18,0.00,40.00,4,-33,10,0.00
2013-7-16,78,67,57,44,37,30,54,35,17,0.00,40.00,5,-40,10,0.00
2013-7-17,82,66,51,50,38,27,52,39,19,0.00,40.00,2,-55,8,0.00
2013-7-18,85,68,55,53,42,27,72,43,13,0.00,40.00,3,-214,7,0.00
2013-7-19,89,71,57,54,45,35,72,42,16,0.00,40.00,3,-85,8,0.00
2013-7-20,90,72,59,54,43,-100,58,39,13,0.00,40.00,2,-89,7,0.00
2013-7-21,92,79,63,56,48,34,59,36,13,0.00,40.00,2,-59,9,0.00
2013-7-22,86,72,61,58,48,43,67,44,27,0.00,40.00,3,-66,9,0.00
2013-7-23,80,70,62,55,49,41,64,49,28,0.00,40.00,3,-99,7,0.00
2013-7-24,83,68,57,56,49,43,73,52,30,0.00,40.00,2,-34,7,0.00
2013-7-25,71,63,59,62,52,48,97,67,55,0.00,40.00,2,-40,7,0.00
2013-7-26,83,67,57,58,53,49,83,65,35,0.00,40.00,4,-45,11,0.00
2013-7-27,82,66,56,54,49,42,79,58,24,0.00,40.00,4,-30,8,0.00
2013-7-28,81,70,56,50,44,40,61,42,27,0.00,40.00,4,2,8,0.00
2013-7-29,79,69,55,42,36,33,53,32,22,0.00,40.00,6,3,12,0.00
2013-7-30,80,71,57,49,41,35,50,35,23,0.00,40.00,4,-15,9,0.00
2013-7-31,77,68,55,46,41,37,56,39,25,0.00,40.00,5,-34,11,0.00
2013-8-1,73,63,52,37,28,21,55,30,15,0.00,40.00,7,-57,16,0.00
2013-8-2,77,60,48,39,32,22,61,37,14,0.00,40.00,2,-65,7,0.00
2013-8-3,79,66,54,46,40,34,53,41,20,0.00,40.00,2,-84,7,0.00
2013-8-4,82,63,53,47,40,35,61,46,19,0.00,40.00,3,-50,8,0.00
2013-8-5,82,63,54,47,38,30,57,41,15,0.00,40.00,2,-67,7,0.00
2013-8-6,78,62,54,47,38,20,60,43,12,0.00,40.00,3,-13,10,0.00
2013-8-7,75,64,56,44,39,34,57,41,29,0.00,40.00,3,-62,11,0.00
2013-8-8,73,61,51,45,39,34,60,47,26,0.00,40.00,3,-33,9,0.00
2013-8-9,75,64,54,47,39,30,57,41,24,0.00,40.00,5,-76,13,0.00
2013-8-14,83,66,53,47,31,-100,54,36,16,0.00,40.00,3,-23,7,0.00
2013-8-15,80,56,55,49,11,-100,58,29,13,0.00,40.00,3,1,9,0.00
2013-8-16,81,65,57,39,23,-100,38,23,16,0.00,40.00,3,2,8,0.00
2013-8-17,83,68,56,52,40,-100,63,39,21,0.00,40.00,3,-16,7,0.00
2013-8-18,80,68,57,50,42,38,62,40,24,0.00,40.00,3,-14,14,0.00
2013-8-19,76,67,62,58,42,-100,64,48,28,0.00,40.00,5,-13,16,0.00
2013-8-20,84,66,59,56,45,-100,82,51,23,0.00,40.00,4,1,15,0.00
2013-8-21,71,63,57,57,50,43,88,64,47,0.00,40.00,2,1,7,0.00
2013-8-22,75,65,55,54,43,34,86,49,25,0.00,40.00,5,2,14,0.00
2013-8-23,74,65,52,45,38,30,57,38,23,0.00,40.00,4,2,8,0.00
2013-8-24,73,63,51,41,33,-100,54,34,21,0.00,40.00,5,2,12,0.00
2013-8-25,71,60,51,42,37,30,66,44,31,0.00,40.00,7,3,15,0.00
2013-8-26,74,63,51,45,39,34,65,43,24,0.00,40.00,6,-9,13,0.00
2013-8-27,70,58,53,50,38,33,62,48,35,0.00,40.00,2,1,10,0.00
2013-8-28,74,68,60,53,47,42,67,47,34,0.00,40.00,5,2,11,0.00
2013-8-29,77,66,55,47,40,35,61,40,22,0.00,40.00,4,-33,9,0.00
2013-8-30,61,59,57,39,37,33,49,45,37,0.00,40.00,1,0,2,0.00
2013-9-3,74,67,60,49,48,46,61,50,39,0.00,40.00,5,-109,10,0.00
2013-9-4,76,66,57,49,46,44,64,50,36,0.00,40.00,5,-12,12,0.00
2013-9-5,75,65,56,44,40,36,58,41,28,0.00,40.00,9,-10,19,0.00
2013-9-6,78,64,54,48,42,37,56,45,28,0.00,40.00,3,1,11,0.00
2013-9-7,77,61,53,53,40,-100,69,50,29,0.00,40.00,3,-31,7,0.00
2013-9-8,80,67,55,50,40,33,59,40,19,0.00,40.00,2,-21,6,0.00
2013-9-9,81,66,53,48,37,27,62,39,15,0.00,40.00,3,1,15,0.00
2013-9-10,76,64,54,42,35,24,46,35,21,0.00,40.00,3,1,11,0.00
2013-9-11,78,64,55,50,42,34,61,45,27,0.00,40.00,3,-27,6,0.00
2013-9-12,76,63,53,55,45,37,98,55,30,0.00,40.00,4,-12,9,0.00
2013-9-13,72,59,51,56,53,50,98,80,47,0.00,40.00,2,-23,8,0.00
2013-9-14,77,62,54,56,47,-100,85,61,29,0.00,40.00,2,-13,7,0.00
2013-9-15,76,65,55,48,41,33,73,45,23,0.00,40.00,7,-14,20,0.00
2013-9-16,76,65,55,42,36,31,57,35,24,0.00,40.00,7,3,17,0.00
2013-9-17,65,57,45,40,33,18,63,43,17,0.00,40.00,8,4,18,0.00
2013-9-18,56,50,42,31,28,25,66,45,31,0.00,40.00,3,-44,11,0.00
2013-9-19,73,59,48,42,32,23,47,36,23,0.00,40.00,2,-18,11,0.00
2013-9-20,70,62,51,34,31,26,48,32,20,0.00,40.00,7,-17,13,0.00
2013-9-21,56,46,37,45,34,-100,96,67,37,0.00,40.00,9,-18,15,0.00
2013-9-22,59,45,37,39,35,28,88,70,40,0.00,40.00,3,-11,9,0.00
2013-9-23,69,53,41,43,39,18,90,62,24,0.00,40.00,2,1,7,0.00
2013-9-24,63,55,48,38,27,9,57,35,19,0.00,40.00,9,5,19,0.00
2013-9-25,49,42,33,34,27,21,85,57,34,0.00,40.00,8,-10,15,0.00
2013-9-26,44,36,30,27,24,19,76,63,38,0.00,40.00,3,-13,11,0.00
2013-9-27,58,42,32,33,26,21,75,53,25,0.00,40.00,3,1,10,0.00
2013-9-28,65,54,42,35,27,-100,55,38,32,0.00,40.00,4,2,10,0.00
2013-9-29,61,56,52,32,29,22,44,36,31,0.00,40.00,9,-33,19,0.00
2013-9-30,62,56,49,38,33,26,65,43,33,0.00,40.00,7,-16,14,0.00
2013-10-1,64,56,49,41,34,27,66,47,30,0.00,40.00,3,2,7,0.00
2013-10-2,59,52,43,35,23,15,54,34,19,0.00,40.00,7,-29,11,0.00
2013-10-3,46,41,36,27,18,8,63,40,24,0.00,40.00,6,-9,21,0.00
2013-10-4,52,40,32,21,16,10,60,39,22,0.00,40.00,6,-9,27,0.00
2013-10-5,59,46,36,28,18,11,48,34,23,0.00,40.00,3,-16,13,0.00
2013-10-6,65,53,43,40,30,22,64,43,29,0.00,40.00,2,1,6,0.00
2013-10-7,64,55,42,29,22,13,43,28,21,0.00,40.00,4,2,8,0.00
2013-10-8,58,50,42,31,21,12,43,33,24,0.00,40.00,3,-12,10,0.00
2013-10-9,45,40,35,33,29,23,85,65,45,0.00,40.00,5,-31,20,0.00
2013-10-10,54,42,34,34,31,28,83,66,39,0.00,40.00,3,2,12,0.00
2013-10-11,57,46,35,36,31,23,79,58,27,0.00,40.00,2,1,8,0.00
2013-10-12,56,47,37,31,28,24,71,49,32,0.00,40.00,6,2,12,0.00
2013-10-13,51,40,35,36,30,26,91,68,45,0.00,40.00,3,1,9,0.00
2013-10-21,54,50,43,31,22,19,55,34,26,0.00,40.00,2,1,6,0.00
2013-10-22,58,51,41,37,27,18,61,41,24,0.00,40.00,2,-24,7,0.00
2013-10-23,60,52,42,37,27,15,61,40,17,0.00,40.00,3,1,11,0.00
2013-10-24,57,50,42,36,28,19,54,42,33,0.00,40.00,2,1,9,0.00
2013-10-25,62,50,40,35,29,13,60,44,24,0.00,40.00,3,1,7,0.00
2013-10-26,65,56,44,38,25,-100,51,33,22,0.00,40.00,2,1,5,0.00
2013-10-27,64,52,35,32,24,20,70,36,18,0.00,40.00,9,-15,17,0.00
2013-10-28,36,32,28,29,24,-100,81,73,60,0.00,40.00,6,2,11,5.00
2013-10-29,39,34,32,28,24,23,71,67,63,0.00,40.00,6,-33,10,0.00
2013-10-31,54,46,34,36,30,25,69,53,38,0.00,40.00,3,-46,7,0.00
2013-11-1,55,47,36,38,33,25,66,58,48,0.00,40.00,2,-23,5,0.00
2013-11-2,61,55,42,30,25,16,48,33,22,0.00,40.00,5,-39,9,0.00
2013-11-3,49,41,34,30,24,10,64,52,36,0.00,40.00,4,-11,9,0.00
2013-11-4,43,33,28,13,10,7,47,37,26,0.00,40.00,6,-9,13,0.00
2013-11-5,50,38,27,25,15,6,50,39,29,0.00,40.00,3,-13,5,0.00
2013-11-6,54,48,37,36,31,24,61,50,44,0.00,40.00,3,1,7,0.00
2013-11-7,63,54,42,31,18,13,59,26,16,0.00,40.00,6,-11,11,0.00
2013-11-8,62,50,42,31,20,13,46,32,22,0.00,40.00,4,1,7,0.00
2013-11-9,57,51,43,37,27,-100,61,42,32,0.00,40.00,2,1,5,0.00
2013-11-10,57,51,40,37,25,10,56,38,20,0.00,40.00,3,1,5,0.00
2013-11-11,58,52,40,39,30,12,58,43,26,0.00,40.00,4,1,6,0.00
2013-11-12,62,57,47,35,28,14,39,33,20,0.00,40.00,4,1,7,0.00
2013-11-13,57,52,41,39,33,23,61,50,31,0.00,40.00,2,1,5,0.00
2013-11-14,59,50,41,28,26,24,52,39,28,0.00,40.00,3,1,6,0.00
2013-11-15,44,38,35,27,23,21,69,55,45,0.00,40.00,6,2,13,0.00
2013-11-16,50,41,35,29,23,-100,65,51,32,0.00,40.00,6,2,9,0.00
2013-11-17,55,45,34,34,28,22,64,51,31,0.00,40.00,2,1,4,0.00
2013-11-18,53,46,37,32,28,23,62,51,41,0.00,40.00,5,2,10,0.00
2013-11-19,50,44,38,33,30,27,68,59,49,0.00,40.00,7,3,10,0.00
2013-11-20,47,39,34,33,31,28,79,72,57,0.00,40.00,5,2,7,0.00
2013-11-21,35,26,21,29,18,9,80,71,54,0.00,40.00,1,0,3,0.00
2013-11-22,31,25,18,9,2,-6,56,38,26,0.00,40.00,6,1,17,0.00
2013-11-23,37,30,27,8,1,-100,41,30,21,0.00,40.00,6,2,14,0.00
2013-11-24,44,35,28,17,10,5,51,35,21,0.00,40.00,3,2,5,0.00
2013-11-27,47,42,37,33,24,16,63,50,29,0.00,40.00,3,1,6,0.00
2013-11-28,48,40,35,27,23,20,62,51,35,0.00,40.00,4,1,8,0.00
2013-11-29,45,37,31,30,24,19,73,59,42,0.00,40.00,4,1,9,0.00
2013-11-30,44,39,32,30,22,-100,67,52,43,0.00,40.00,3,1,5,0.00
2013-12-1,48,44,33,32,27,20,59,53,36,0.00,40.00,3,1,5,0.00
2013-12-2,56,49,39,29,20,15,56,32,21,0.00,40.00,7,4,15,0.00
2013-12-3,45,29,12,32,18,-3,77,62,51,0.00,40.00,11,4,24,0.00
2013-12-4,22,16,10,7,1,-4,61,52,36,0.00,40.00,3,1,9,0.00
2013-12-5,25,17,8,5,2,-3,63,50,29,0.00,40.00,2,1,6,0.00
2013-12-6,30,21,14,14,-3,-16,77,37,17,0.00,40.00,8,3,12,0.00
2013-12-7,22,16,11,16,6,-100,79,68,52,0.00,40.00,8,4,12,0.00
2013-12-8,20,11,4,4,-2,-14,65,56,34,0.00,40.00,4,1,6,0.00
2013-12-9,30,20,6,10,-1,-14,45,39,28,0.00,40.00,3,1,6,0.00
2013-12-10,37,32,22,23,16,10,67,52,37,0.00,40.00,3,2,6,0.00
2013-12-11,38,32,26,20,13,7,55,46,35,0.00,40.00,3,2,5,0.00
2013-12-12,38,33,26,27,17,6,68,51,33,0.00,40.00,2,1,3,0.00
2013-12-13,41,33,26,19,10,0,52,39,27,0.00,40.00,4,1,7,0.00
2013-12-14,44,33,27,22,15,-100,65,51,27,0.00,40.00,2,2,6,0.00
2013-12-15,42,38,30,29,25,18,68,59,55,0.00,40.00,2,1,4,0.00
2013-12-16,43,39,34,31,28,22,73,63,55,0.00,40.00,3,2,6,0.00
2013-12-17,42,41,40,31,27,21,67,58,46,0.00,40.00,2,1,3,0.00
2013-12-18,49,42,35,34,27,19,73,57,37,0.00,40.00,7,2,10,0.00
2013-12-19,38,27,18,22,15,6,75,60,48,0.00,40.00,6,2,13,0.00
2013-12-20,37,25,15,22,8,2,63,49,23,0.00,40.00,5,2,9,0.00
2013-12-21,42,38,32,28,22,-100,64,55,36,0.00,40.00,4,2,8,0.00
2013-12-22,49,38,30,28,24,18,68,57,43,0.00,40.00,4,2,8,0.00
2013-12-23,41,36,30,32,26,22,73,69,64,0.00,40.00,2,1,5,0.00
2013-12-24,41,36,31,31,24,21,75,62,46,0.00,40.00,3,2,5,0.00
2013-12-25,41,35,29,27,22,12,77,60,35,0.00,40.00,2,1,3,0.00
2013-12-26,40,36,29,25,22,16,69,57,43,0.00,40.00,3,1,7,0.00
2013-12-27,43,37,29,31,22,7,73,56,31,0.00,40.00,2,1,4,0.00
2013-12-28,44,36,28,16,9,-100,55,35,20,0.00,40.00,8,2,14,0.00
2013-12-29,41,33,25,20,15,10,59,49,36,0.00,40.00,3,1,6,0.00
2013-12-30,44,39,30,30,20,10,63,47,27,0.00,40.00,3,2,6,0.00
2013-12-31,49,41,36,30,17,5,63,38,22,0.00,40.00,2,1,3,0.00
2014-1-1,42,37,32,28,21,10,70,53,35,0.00,40.00,2,1,5,0.00
2014-1-2,42,37,30,31,25,21,73,62,49,0.00,40.00,2,1,6,0.00